sensor_id;sensor_type;location;lat;lon;timestamp;pressure;altitude;pressure_sealevel;temperature;humidity
967;BME280;56108;48.730;9.304;2022-12-17T00:02:08;97861.78;;;-5.98;100.00
967;BME280;56108;48.730;9.304;2022-12-17T00:04:28;97864.34;;;-5.89;100.00
967;BME280;56108;48.730;9.304;2022-12-17T00:06:51;97860.06;;;-5.94;100.00
967;BME280;56108;48.730;9.304;2022-12-17T00:09:11;97866.09;;;-6.01;100.00
967;BME280;56108;48.730;9.304;2022-12-17T00:11:31;97872.16;;;-6.02;100.00
967;BME280;56108;48.730;9.304;2022-12-17T00:13:52;97876.47;;;-6.03;100.00
967;BME280;56108;48.730;9.304;2022-12-17T00:16:18;97872.16;;;-5.95;100.00
967;BME280;56108;48.730;9.304;2022-12-17T00:18:43;97879.91;;;-6.07;100.00
967;BME280;56108;48.730;9.304;2022-12-17T00:21:04;97875.56;;;-6.11;100.00
967;BME280;56108;48.730;9.304;2022-12-17T00:23:27;97875.59;;;-6.14;100.00
967;BME280;56108;48.730;9.304;2022-12-17T00:25:49;97879.91;;;-6.21;100.00
967;BME280;56108;48.730;9.304;2022-12-17T00:28:10;97890.28;;;-6.21;100.00
967;BME280;56108;48.730;9.304;2022-12-17T00:30:30;97886.81;;;-6.24;100.00
967;BME280;56108;48.730;9.304;2022-12-17T00:32:51;97885.94;;;-6.19;100.00
967;BME280;56108;48.730;9.304;2022-12-17T00:35:11;97884.22;;;-6.29;100.00
967;BME280;56108;48.730;9.304;2022-12-17T00:37:34;97890.25;;;-6.35;100.00
967;BME280;56108;48.730;9.304;2022-12-17T00:39:57;97898.00;;;-6.38;100.00
967;BME280;56108;48.730;9.304;2022-12-17T00:42:17;97902.31;;;-6.40;100.00
967;BME280;56108;48.730;9.304;2022-12-17T00:44:38;97895.41;;;-6.39;100.00
967;BME280;56108;48.730;9.304;2022-12-17T00:46:59;97900.63;;;-6.06;100.00
967;BME280;56108;48.730;9.304;2022-12-17T00:49:26;97900.63;;;-5.89;100.00
967;BME280;56108;48.730;9.304;2022-12-17T00:51:46;97914.47;;;-6.10;100.00
967;BME280;56108;48.730;9.304;2022-12-17T00:54:06;97910.97;;;-6.32;100.00
967;BME280;56108;48.730;9.304;2022-12-17T00:56:29;97923.88;;;-6.47;100.00
967;BME280;56108;48.730;9.304;2022-12-17T00:58:49;97923.00;;;-6.44;100.00
967;BME280;56108;48.730;9.304;2022-12-17T01:01:10;97931.63;;;-6.48;100.00
967;BME280;56108;48.730;9.304;2022-12-17T01:03:30;97927.31;;;-6.48;100.00
967;BME280;56108;48.730;9.304;2022-12-17T01:05:51;97933.38;;;-6.46;100.00
967;BME280;56108;48.730;9.304;2022-12-17T01:08:13;97934.22;;;-6.45;100.00
967;BME280;56108;48.730;9.304;2022-12-17T01:10:34;97929.91;;;-6.48;100.00
967;BME280;56108;48.730;9.304;2022-12-17T01:12:57;97930.75;;;-6.49;100.00
967;BME280;56108;48.730;9.304;2022-12-17T01:15:17;97941.13;;;-6.49;100.00
967;BME280;56108;48.730;9.304;2022-12-17T01:17:37;97935.94;;;-6.55;100.00
967;BME280;56108;48.730;9.304;2022-12-17T01:19:59;97940.19;;;-6.66;100.00
967;BME280;56108;48.730;9.304;2022-12-17T01:22:20;97941.06;;;-6.64;100.00
967;BME280;56108;48.730;9.304;2022-12-17T01:24:40;97935.03;;;-6.60;100.00
967;BME280;56108;48.730;9.304;2022-12-17T01:27:00;97930.72;;;-6.61;100.00
967;BME280;56108;48.730;9.304;2022-12-17T01:29:23;97926.41;;;-6.59;100.00
967;BME280;56108;48.730;9.304;2022-12-17T01:31:43;97935.88;;;-6.66;100.00
967;BME280;56108;48.730;9.304;2022-12-17T01:34:04;97937.59;;;-6.71;100.00
967;BME280;56108;48.730;9.304;2022-12-17T01:36:25;97932.41;;;-6.72;100.00
967;BME280;56108;48.730;9.304;2022-12-17T01:38:46;97942.78;;;-6.72;100.00
967;BME280;56108;48.730;9.304;2022-12-17T01:41:15;97942.78;;;-6.72;100.00
967;BME280;56108;48.730;9.304;2022-12-17T01:43:37;97942.75;;;-6.74;100.00
967;BME280;56108;48.730;9.304;2022-12-17T01:46:00;97949.66;;;-6.76;100.00
967;BME280;56108;48.730;9.304;2022-12-17T01:48:23;97951.38;;;-6.75;100.00
967;BME280;56108;48.730;9.304;2022-12-17T01:50:49;97955.69;;;-6.71;100.00
967;BME280;56108;48.730;9.304;2022-12-17T01:53:14;97949.66;;;-6.71;100.00
967;BME280;56108;48.730;9.304;2022-12-17T01:55:36;97953.94;;;-6.75;100.00
967;BME280;56108;48.730;9.304;2022-12-17T01:57:57;97956.63;;;-6.61;100.00
967;BME280;56108;48.730;9.304;2022-12-17T02:00:17;97960.94;;;-6.60;100.00
967;BME280;56108;48.730;9.304;2022-12-17T02:02:42;97963.53;;;-6.57;100.00
967;BME280;56108;48.730;9.304;2022-12-17T02:05:07;97969.56;;;-6.53;100.00
967;BME280;56108;48.730;9.304;2022-12-17T02:07:36;97965.31;;;-6.38;100.00
967;BME280;56108;48.730;9.304;2022-12-17T02:10:07;97971.34;;;-6.39;100.00
967;BME280;56108;48.730;9.304;2022-12-17T02:12:39;97972.25;;;-6.27;100.00
967;BME280;56108;48.730;9.304;2022-12-17T02:15:09;97970.53;;;-6.24;100.00
967;BME280;56108;48.730;9.304;2022-12-17T02:17:36;97980.06;;;-6.15;100.00
967;BME280;56108;48.730;9.304;2022-12-17T02:20:12;97980.06;;;-6.14;100.00
967;BME280;56108;48.730;9.304;2022-12-17T02:22:45;97985.28;;;-6.00;100.00
967;BME280;56108;48.730;9.304;2022-12-17T02:25:21;97986.13;;;-6.01;100.00
967;BME280;56108;48.730;9.304;2022-12-17T02:27:48;97982.66;;;-6.08;100.00
967;BME280;56108;48.730;9.304;2022-12-17T02:30:11;97991.31;;;-6.01;100.00
967;BME280;56108;48.730;9.304;2022-12-17T02:32:34;97982.69;;;-6.00;100.00
967;BME280;56108;48.730;9.304;2022-12-17T02:34:59;97989.59;;;-5.96;100.00
967;BME280;56108;48.730;9.304;2022-12-17T02:37:20;97993.03;;;-5.88;100.00
967;BME280;56108;48.730;9.304;2022-12-17T02:39:40;97986.13;;;-6.02;100.00
967;BME280;56108;48.730;9.304;2022-12-17T02:42:01;97995.59;;;-6.26;100.00
967;BME280;56108;48.730;9.304;2022-12-17T02:44:25;98000.75;;;-6.26;100.00
967;BME280;56108;48.730;9.304;2022-12-17T02:46:48;98001.69;;;-6.04;100.00
967;BME280;56108;48.730;9.304;2022-12-17T02:49:09;98005.97;;;-6.12;100.00
967;BME280;56108;48.730;9.304;2022-12-17T02:51:29;98005.97;;;-6.15;100.00
967;BME280;56108;48.730;9.304;2022-12-17T02:53:52;98018.06;;;-6.16;100.00
967;BME280;56108;48.730;9.304;2022-12-17T02:56:12;98015.50;;;-6.05;100.00
967;BME280;56108;48.730;9.304;2022-12-17T02:58:32;98015.50;;;-6.05;100.00
967;BME280;56108;48.730;9.304;2022-12-17T03:00:59;98018.09;;;-5.96;100.00
967;BME280;56108;48.730;9.304;2022-12-17T03:03:24;98018.97;;;-5.97;100.00
967;BME280;56108;48.730;9.304;2022-12-17T03:05:51;98025.03;;;-5.93;100.00
967;BME280;56108;48.730;9.304;2022-12-17T03:08:11;98025.03;;;-5.92;100.00
967;BME280;56108;48.730;9.304;2022-12-17T03:10:33;98025.03;;;-5.83;100.00
967;BME280;56108;48.730;9.304;2022-12-17T03:12:53;98024.16;;;-5.65;100.00
967;BME280;56108;48.730;9.304;2022-12-17T03:15:13;98036.31;;;-5.45;100.00
967;BME280;56108;48.730;9.304;2022-12-17T03:17:37;98038.88;;;-5.48;100.00
967;BME280;56108;48.730;9.304;2022-12-17T03:19:57;98037.16;;;-5.28;100.00
967;BME280;56108;48.730;9.304;2022-12-17T03:22:17;98044.97;;;-5.19;100.00
967;BME280;56108;48.730;9.304;2022-12-17T03:24:37;98057.06;;;-5.35;100.00
967;BME280;56108;48.730;9.304;2022-12-17T03:26:58;98050.13;;;-5.51;100.00
967;BME280;56108;48.730;9.304;2022-12-17T03:29:19;98061.38;;;-5.23;100.00
967;BME280;56108;48.730;9.304;2022-12-17T03:31:46;98055.34;;;-5.08;100.00
967;BME280;56108;48.730;9.304;2022-12-17T03:34:09;98062.25;;;-5.10;100.00
967;BME280;56108;48.730;9.304;2022-12-17T03:36:30;98064.84;;;-5.15;100.00
967;BME280;56108;48.730;9.304;2022-12-17T03:39:05;98063.97;;;-5.14;100.00
967;BME280;56108;48.730;9.304;2022-12-17T03:41:25;98066.56;;;-4.91;100.00
967;BME280;56108;48.730;9.304;2022-12-17T03:43:46;98065.69;;;-4.87;100.00
967;BME280;56108;48.730;9.304;2022-12-17T03:46:06;98065.69;;;-5.02;100.00
967;BME280;56108;48.730;9.304;2022-12-17T03:48:26;98078.69;;;-5.07;100.00
967;BME280;56108;48.730;9.304;2022-12-17T03:50:49;98077.81;;;-5.00;100.00
967;BME280;56108;48.730;9.304;2022-12-17T03:53:10;98080.44;;;-5.06;100.00
967;BME280;56108;48.730;9.304;2022-12-17T03:55:30;98074.34;;;-5.28;100.00
967;BME280;56108;48.730;9.304;2022-12-17T03:57:50;98076.09;;;-5.08;100.00
967;BME280;56108;48.730;9.304;2022-12-17T04:00:11;98077.81;;;-5.00;100.00
967;BME280;56108;48.730;9.304;2022-12-17T04:02:32;98080.41;;;-5.04;100.00
967;BME280;56108;48.730;9.304;2022-12-17T04:04:52;98072.63;;;-4.95;100.00
967;BME280;56108;48.730;9.304;2022-12-17T04:07:15;98071.78;;;-4.85;100.00
967;BME280;56108;48.730;9.304;2022-12-17T04:09:35;98076.09;;;-4.84;100.00
967;BME280;56108;48.730;9.304;2022-12-17T04:11:58;98088.19;;;-4.93;100.00
967;BME280;56108;48.730;9.304;2022-12-17T04:14:18;98087.34;;;-4.79;100.00
967;BME280;56108;48.730;9.304;2022-12-17T04:16:39;98094.25;;;-4.81;100.00
967;BME280;56108;48.730;9.304;2022-12-17T04:18:59;98092.50;;;-4.91;100.00
967;BME280;56108;48.730;9.304;2022-12-17T04:21:19;98102.06;;;-4.79;100.00
967;BME280;56108;48.730;9.304;2022-12-17T04:23:43;98108.97;;;-4.83;100.00
967;BME280;56108;48.730;9.304;2022-12-17T04:26:03;98105.47;;;-4.66;100.00
967;BME280;56108;48.730;9.304;2022-12-17T04:28:25;98117.63;;;-4.88;100.00
967;BME280;56108;48.730;9.304;2022-12-17T04:30:46;98117.59;;;-5.02;100.00
967;BME280;56108;48.730;9.304;2022-12-17T04:33:06;98123.69;;;-4.80;100.00
967;BME280;56108;48.730;9.304;2022-12-17T04:35:26;98112.44;;;-4.73;100.00
967;BME280;56108;48.730;9.304;2022-12-17T04:37:47;98118.47;;;-4.77;100.00
967;BME280;56108;48.730;9.304;2022-12-17T04:40:11;98124.50;;;-5.12;100.00
967;BME280;56108;48.730;9.304;2022-12-17T04:42:31;98121.09;;;-5.05;100.00
967;BME280;56108;48.730;9.304;2022-12-17T04:44:51;98127.09;;;-5.18;100.00
967;BME280;56108;48.730;9.304;2022-12-17T04:47:11;98128.88;;;-5.06;100.00
967;BME280;56108;48.730;9.304;2022-12-17T04:49:32;98124.53;;;-4.89;100.00
967;BME280;56108;48.730;9.304;2022-12-17T04:52:01;98126.22;;;-5.34;100.00
967;BME280;56108;48.730;9.304;2022-12-17T04:54:21;98127.13;;;-5.03;100.00
967;BME280;56108;48.730;9.304;2022-12-17T04:56:44;98132.31;;;-5.00;100.00
967;BME280;56108;48.730;9.304;2022-12-17T04:59:04;98134.94;;;-5.01;100.00
967;BME280;56108;48.730;9.304;2022-12-17T05:01:28;98139.25;;;-4.99;100.00
967;BME280;56108;48.730;9.304;2022-12-17T05:03:49;98136.63;;;-5.21;100.00
967;BME280;56108;48.730;9.304;2022-12-17T05:06:09;98140.09;;;-5.19;100.00
967;BME280;56108;48.730;9.304;2022-12-17T05:08:29;98133.16;;;-5.20;100.00
967;BME280;56108;48.730;9.304;2022-12-17T05:10:49;98146.06;;;-5.43;100.00
967;BME280;56108;48.730;9.304;2022-12-17T05:13:13;98140.06;;;-5.29;100.00
967;BME280;56108;48.730;9.304;2022-12-17T05:15:33;98143.50;;;-5.39;100.00
967;BME280;56108;48.730;9.304;2022-12-17T05:18:03;98141.72;;;-5.55;100.00
967;BME280;56108;48.730;9.304;2022-12-17T05:20:24;98131.28;;;-5.77;100.00
967;BME280;56108;48.730;9.304;2022-12-17T05:22:44;98139.03;;;-5.80;100.00
967;BME280;56108;48.730;9.304;2022-12-17T05:25:05;98139.91;;;-5.90;100.00
967;BME280;56108;48.730;9.304;2022-12-17T05:27:25;98142.47;;;-5.87;100.00
967;BME280;56108;48.730;9.304;2022-12-17T05:29:48;98145.97;;;-5.77;100.00
967;BME280;56108;48.730;9.304;2022-12-17T05:32:09;98142.56;;;-5.68;100.00
967;BME280;56108;48.730;9.304;2022-12-17T05:34:29;98144.25;;;-5.78;100.00
967;BME280;56108;48.730;9.304;2022-12-17T05:36:49;98141.66;;;-5.84;100.00
967;BME280;56108;48.730;9.304;2022-12-17T05:39:10;98145.16;;;-5.65;100.00
967;BME280;56108;48.730;9.304;2022-12-17T05:41:30;98148.63;;;-5.68;100.00
967;BME280;56108;48.730;9.304;2022-12-17T05:43:50;98149.44;;;-5.75;100.00
967;BME280;56108;48.730;9.304;2022-12-17T05:46:13;98148.59;;;-5.72;100.00
967;BME280;56108;48.730;9.304;2022-12-17T05:48:34;98145.00;;;-6.08;100.00
967;BME280;56108;48.730;9.304;2022-12-17T05:50:55;98143.34;;;-6.00;100.00
967;BME280;56108;48.730;9.304;2022-12-17T05:53:15;98141.59;;;-6.01;100.00
967;BME280;56108;48.730;9.304;2022-12-17T05:55:40;98155.44;;;-5.97;100.00
967;BME280;56108;48.730;9.304;2022-12-17T05:58:01;98157.19;;;-5.80;100.00
967;BME280;56108;48.730;9.304;2022-12-17T06:00:23;98164.09;;;-5.88;100.00
967;BME280;56108;48.730;9.304;2022-12-17T06:02:46;98166.59;;;-6.06;100.00
967;BME280;56108;48.730;9.304;2022-12-17T06:05:09;98172.63;;;-6.12;100.00
967;BME280;56108;48.730;9.304;2022-12-17T06:07:29;98161.44;;;-6.03;100.00
967;BME280;56108;48.730;9.304;2022-12-17T06:09:49;98169.28;;;-5.89;100.00
967;BME280;56108;48.730;9.304;2022-12-17T06:12:10;98171.97;;;-5.62;100.00
967;BME280;56108;48.730;9.304;2022-12-17T06:14:30;98176.22;;;-5.76;100.00
967;BME280;56108;48.730;9.304;2022-12-17T06:16:51;98180.53;;;-5.77;100.00
967;BME280;56108;48.730;9.304;2022-12-17T06:19:20;98190.19;;;-5.48;100.00
967;BME280;56108;48.730;9.304;2022-12-17T06:21:44;98192.75;;;-5.51;100.00
967;BME280;56108;48.730;9.304;2022-12-17T06:24:05;98197.00;;;-5.65;100.00
967;BME280;56108;48.730;9.304;2022-12-17T06:26:25;98196.09;;;-5.78;100.00
967;BME280;56108;48.730;9.304;2022-12-17T06:28:47;98192.72;;;-5.63;100.00
967;BME280;56108;48.730;9.304;2022-12-17T06:31:07;98196.16;;;-5.67;100.00
967;BME280;56108;48.730;9.304;2022-12-17T06:33:28;98202.19;;;-5.68;100.00
967;BME280;56108;48.730;9.304;2022-12-17T06:35:51;98204.72;;;-5.81;100.00
967;BME280;56108;48.730;9.304;2022-12-17T06:38:12;98205.59;;;-5.75;100.00
967;BME280;56108;48.730;9.304;2022-12-17T06:40:33;98208.16;;;-5.80;100.00
967;BME280;56108;48.730;9.304;2022-12-17T06:42:55;98207.16;;;-6.14;100.00
967;BME280;56108;48.730;9.304;2022-12-17T06:45:16;98220.19;;;-6.02;100.00
967;BME280;56108;48.730;9.304;2022-12-17T06:47:36;98218.47;;;-5.97;100.00
967;BME280;56108;48.730;9.304;2022-12-17T06:49:58;98222.94;;;-5.67;100.00
967;BME280;56108;48.730;9.304;2022-12-17T06:52:21;98233.31;;;-5.68;100.00
967;BME280;56108;48.730;9.304;2022-12-17T06:54:41;98234.16;;;-5.65;100.00
967;BME280;56108;48.730;9.304;2022-12-17T06:57:02;98234.25;;;-5.53;100.00
967;BME280;56108;48.730;9.304;2022-12-17T06:59:36;98241.91;;;-5.72;100.00
967;BME280;56108;48.730;9.304;2022-12-17T07:01:56;98233.28;;;-5.70;100.00
967;BME280;56108;48.730;9.304;2022-12-17T07:04:17;98245.38;;;-5.72;100.00
967;BME280;56108;48.730;9.304;2022-12-17T07:06:37;98246.09;;;-6.05;100.00
967;BME280;56108;48.730;9.304;2022-12-17T07:09:03;98246.00;;;-6.14;100.00
967;BME280;56108;48.730;9.304;2022-12-17T07:11:25;98247.00;;;-5.85;100.00
967;BME280;56108;48.730;9.304;2022-12-17T07:13:58;98248.94;;;-5.47;100.00
967;BME280;56108;48.730;9.304;2022-12-17T07:16:18;98249.75;;;-5.60;100.00
967;BME280;56108;48.730;9.304;2022-12-17T07:18:39;98259.19;;;-5.71;100.00
967;BME280;56108;48.730;9.304;2022-12-17T07:20:59;98257.56;;;-5.57;100.00
967;BME280;56108;48.730;9.304;2022-12-17T07:23:20;98259.28;;;-5.56;100.00
967;BME280;56108;48.730;9.304;2022-12-17T07:25:43;98274.66;;;-5.90;100.00
967;BME280;56108;48.730;9.304;2022-12-17T07:28:03;98276.34;;;-5.96;100.00
967;BME280;56108;48.730;9.304;2022-12-17T07:30:24;98278.06;;;-5.95;100.00
967;BME280;56108;48.730;9.304;2022-12-17T07:32:44;98277.34;;;-5.71;100.00
967;BME280;56108;48.730;9.304;2022-12-17T07:35:06;98284.13;;;-5.99;100.00
967;BME280;56108;48.730;9.304;2022-12-17T07:37:41;98282.31;;;-6.08;100.00
967;BME280;56108;48.730;9.304;2022-12-17T07:40:02;98297.03;;;-6.04;100.00
967;BME280;56108;48.730;9.304;2022-12-17T07:42:25;98296.97;;;-6.12;100.00
967;BME280;56108;48.730;9.304;2022-12-17T07:44:46;98304.09;;;-5.75;100.00
967;BME280;56108;48.730;9.304;2022-12-17T07:47:09;98303.28;;;-5.64;100.00
967;BME280;56108;48.730;9.304;2022-12-17T07:49:32;98299.06;;;-5.53;100.00
967;BME280;56108;48.730;9.304;2022-12-17T07:51:52;98306.03;;;-5.38;100.00
967;BME280;56108;48.730;9.304;2022-12-17T07:54:14;98310.25;;;-5.61;100.00
967;BME280;56108;48.730;9.304;2022-12-17T07:56:34;98314.56;;;-5.59;100.00
967;BME280;56108;48.730;9.304;2022-12-17T07:58:57;98327.63;;;-5.45;100.00
967;BME280;56108;48.730;9.304;2022-12-17T08:01:17;98326.03;;;-5.18;100.00
967;BME280;56108;48.730;9.304;2022-12-17T08:03:38;98331.28;;;-5.02;100.00
967;BME280;56108;48.730;9.304;2022-12-17T08:05:58;98328.72;;;-5.00;100.00
967;BME280;56108;48.730;9.304;2022-12-17T08:08:21;98341.72;;;-4.82;100.00
967;BME280;56108;48.730;9.304;2022-12-17T08:10:42;98343.50;;;-4.73;100.00
967;BME280;56108;48.730;9.304;2022-12-17T08:13:04;98352.06;;;-5.00;100.00
967;BME280;56108;48.730;9.304;2022-12-17T08:15:27;98340.91;;;-4.75;100.00
967;BME280;56108;48.730;9.304;2022-12-17T08:17:50;98353.00;;;-4.77;100.00
967;BME280;56108;48.730;9.304;2022-12-17T08:20:10;98353.78;;;-4.96;100.00
967;BME280;56108;48.730;9.304;2022-12-17T08:22:31;98360.72;;;-5.01;100.00
967;BME280;56108;48.730;9.304;2022-12-17T08:24:51;98362.34;;;-5.18;100.00
967;BME280;56108;48.730;9.304;2022-12-17T08:27:13;98365.06;;;-4.91;100.00
967;BME280;56108;48.730;9.304;2022-12-17T08:29:33;98364.16;;;-5.02;100.00
967;BME280;56108;48.730;9.304;2022-12-17T08:31:56;98366.03;;;-4.69;100.00
967;BME280;56108;48.730;9.304;2022-12-17T08:34:17;98378.97;;;-4.77;100.00
967;BME280;56108;48.730;9.304;2022-12-17T08:36:37;98389.25;;;-4.96;100.00
967;BME280;56108;48.730;9.304;2022-12-17T08:38:57;98390.13;;;-4.96;100.00
967;BME280;56108;48.730;9.304;2022-12-17T08:41:27;98393.63;;;-4.89;100.00
967;BME280;56108;48.730;9.304;2022-12-17T08:43:47;98393.66;;;-4.83;100.00
967;BME280;56108;48.730;9.304;2022-12-17T08:46:07;98397.88;;;-5.02;100.00
967;BME280;56108;48.730;9.304;2022-12-17T08:48:30;98404.03;;;-4.83;100.00
967;BME280;56108;48.730;9.304;2022-12-17T08:50:51;98408.47;;;-4.64;100.00
967;BME280;56108;48.730;9.304;2022-12-17T08:53:12;98406.75;;;-4.51;100.00
967;BME280;56108;48.730;9.304;2022-12-17T08:55:38;98409.38;;;-4.39;100.00
967;BME280;56108;48.730;9.304;2022-12-17T08:58:01;98419.72;;;-4.57;100.00
967;BME280;56108;48.730;9.304;2022-12-17T09:00:21;98424.09;;;-4.53;100.00
967;BME280;56108;48.730;9.304;2022-12-17T09:02:42;98427.63;;;-4.21;100.00
967;BME280;56108;48.730;9.304;2022-12-17T09:05:06;98422.44;;;-4.21;100.00
967;BME280;56108;48.730;9.304;2022-12-17T09:07:26;98428.47;;;-4.23;100.00
967;BME280;56108;48.730;9.304;2022-12-17T09:10:03;98436.31;;;-4.09;100.00
967;BME280;56108;48.730;9.304;2022-12-17T09:12:24;98445.75;;;-4.40;100.00
967;BME280;56108;48.730;9.304;2022-12-17T09:14:44;98437.16;;;-4.26;100.00
967;BME280;56108;48.730;9.304;2022-12-17T09:17:05;98450.97;;;-4.36;100.00
967;BME280;56108;48.730;9.304;2022-12-17T09:19:25;98456.16;;;-4.40;100.00
967;BME280;56108;48.730;9.304;2022-12-17T09:21:49;98447.44;;;-4.58;100.00
967;BME280;56108;48.730;9.304;2022-12-17T09:24:09;98446.53;;;-4.63;100.00
967;BME280;56108;48.730;9.304;2022-12-17T09:26:29;98444.00;;;-4.52;100.00
967;BME280;56108;48.730;9.304;2022-12-17T09:28:50;98441.44;;;-4.43;100.00
967;BME280;56108;48.730;9.304;2022-12-17T09:31:10;98446.44;;;-4.83;100.00
967;BME280;56108;48.730;9.304;2022-12-17T09:33:36;98450.06;;;-4.52;100.00
967;BME280;56108;48.730;9.304;2022-12-17T09:36:01;98452.63;;;-4.59;100.00
967;BME280;56108;48.730;9.304;2022-12-17T09:38:25;98451.81;;;-4.40;100.00
967;BME280;56108;48.730;9.304;2022-12-17T09:40:48;98454.50;;;-4.15;100.00
967;BME280;56108;48.730;9.304;2022-12-17T09:43:21;98458.03;;;-3.90;100.00
967;BME280;56108;48.730;9.304;2022-12-17T09:45:48;98460.59;;;-4.03;100.00
967;BME280;56108;48.730;9.304;2022-12-17T09:48:15;98461.47;;;-4.07;100.00
967;BME280;56108;48.730;9.304;2022-12-17T09:50:39;98464.06;;;-4.05;100.00
967;BME280;56108;48.730;9.304;2022-12-17T09:53:01;98461.47;;;-3.99;100.00
967;BME280;56108;48.730;9.304;2022-12-17T09:55:29;98454.53;;;-4.05;100.00
967;BME280;56108;48.730;9.304;2022-12-17T09:57:55;98458.91;;;-3.82;100.00
967;BME280;56108;48.730;9.304;2022-12-17T10:00:19;98456.28;;;-3.76;100.00
967;BME280;56108;48.730;9.304;2022-12-17T10:02:40;98460.66;;;-3.69;100.00
967;BME280;56108;48.730;9.304;2022-12-17T10:05:01;98456.31;;;-3.62;100.00
967;BME280;56108;48.730;9.304;2022-12-17T10:07:25;98455.38;;;-4.16;100.00
967;BME280;56108;48.730;9.304;2022-12-17T10:09:50;98449.25;;;-4.37;100.00
967;BME280;56108;48.730;9.304;2022-12-17T10:12:15;98449.03;;;-4.81;100.00
967;BME280;56108;48.730;9.304;2022-12-17T10:14:36;98446.22;;;-5.19;100.00
967;BME280;56108;48.730;9.304;2022-12-17T10:16:57;98454.22;;;-4.87;100.00
967;BME280;56108;48.730;9.304;2022-12-17T10:19:24;98449.13;;;-4.69;100.00
967;BME280;56108;48.730;9.304;2022-12-17T10:21:47;98450.88;;;-4.62;100.00
967;BME280;56108;48.730;9.304;2022-12-17T10:24:09;98452.66;;;-4.52;100.00
967;BME280;56108;48.730;9.304;2022-12-17T10:26:32;98456.03;;;-4.71;100.00
967;BME280;56108;48.730;9.304;2022-12-17T10:29:03;98458.75;;;-4.34;100.00
967;BME280;56108;48.730;9.304;2022-12-17T10:31:27;98463.88;;;-4.56;100.00
967;BME280;56108;48.730;9.304;2022-12-17T10:33:47;98452.63;;;-4.55;100.00
967;BME280;56108;48.730;9.304;2022-12-17T10:36:19;98455.41;;;-3.87;100.00
967;BME280;56108;48.730;9.304;2022-12-17T10:38:40;98466.72;;;-3.72;100.00
967;BME280;56108;48.730;9.304;2022-12-17T10:41:01;98458.00;;;-4.01;100.00
967;BME280;56108;48.730;9.304;2022-12-17T10:43:26;98464.97;;;-3.73;100.00
967;BME280;56108;48.730;9.304;2022-12-17T10:45:55;98466.72;;;-3.46;100.00
967;BME280;56108;48.730;9.304;2022-12-17T10:48:21;98463.25;;;-3.28;100.00
967;BME280;56108;48.730;9.304;2022-12-17T10:50:41;98473.66;;;-3.40;98.77
967;BME280;56108;48.730;9.304;2022-12-17T10:53:03;98463.94;;;-4.40;100.00
967;BME280;56108;48.730;9.304;2022-12-17T10:55:34;98470.03;;;-4.34;100.00
967;BME280;56108;48.730;9.304;2022-12-17T10:58:01;98460.56;;;-4.23;100.00
967;BME280;56108;48.730;9.304;2022-12-17T11:00:24;98459.75;;;-3.71;100.00
967;BME280;56108;48.730;9.304;2022-12-17T11:02:56;98461.50;;;-3.85;100.00
967;BME280;56108;48.730;9.304;2022-12-17T11:05:25;98459.59;;;-4.48;100.00
967;BME280;56108;48.730;9.304;2022-12-17T11:07:48;98458.81;;;-4.13;100.00
967;BME280;56108;48.730;9.304;2022-12-17T11:10:15;98451.97;;;-3.74;100.00
967;BME280;56108;48.730;9.304;2022-12-17T11:12:38;98465.88;;;-3.23;100.00
967;BME280;56108;48.730;9.304;2022-12-17T11:15:11;98468.34;;;-4.13;100.00
967;BME280;56108;48.730;9.304;2022-12-17T11:17:37;98471.00;;;-3.92;100.00
967;BME280;56108;48.730;9.304;2022-12-17T11:20:06;98478.00;;;-3.68;100.00
967;BME280;56108;48.730;9.304;2022-12-17T11:22:31;98477.16;;;-3.59;100.00
967;BME280;56108;48.730;9.304;2022-12-17T11:25:02;98481.44;;;-3.78;100.00
967;BME280;56108;48.730;9.304;2022-12-17T11:27:26;98477.03;;;-4.13;100.00
967;BME280;56108;48.730;9.304;2022-12-17T11:29:47;98475.31;;;-3.97;100.00
967;BME280;56108;48.730;9.304;2022-12-17T11:32:26;98477.09;;;-3.96;100.00
967;BME280;56108;48.730;9.304;2022-12-17T11:34:58;98482.88;;;-4.69;100.00
967;BME280;56108;48.730;9.304;2022-12-17T11:37:33;98480.53;;;-4.00;100.00
967;BME280;56108;48.730;9.304;2022-12-17T11:40:05;98479.72;;;-3.75;100.00
967;BME280;56108;48.730;9.304;2022-12-17T11:42:34;98489.28;;;-3.37;100.00
967;BME280;56108;48.730;9.304;2022-12-17T11:45:02;98488.44;;;-3.50;99.63
967;BME280;56108;48.730;9.304;2022-12-17T11:47:38;98486.66;;;-3.40;98.78
967;BME280;56108;48.730;9.304;2022-12-17T11:50:13;98491.00;;;-3.60;99.88
967;BME280;56108;48.730;9.304;2022-12-17T11:52:44;98487.56;;;-3.59;100.00
967;BME280;56108;48.730;9.304;2022-12-17T11:55:16;98483.16;;;-3.77;100.00
967;BME280;56108;48.730;9.304;2022-12-17T11:57:45;98494.41;;;-3.98;100.00
967;BME280;56108;48.730;9.304;2022-12-17T12:00:15;98490.88;;;-4.15;100.00
967;BME280;56108;48.730;9.304;2022-12-17T12:02:52;98490.72;;;-4.57;100.00
967;BME280;56108;48.730;9.304;2022-12-17T12:05:23;98489.00;;;-4.56;100.00
967;BME280;56108;48.730;9.304;2022-12-17T12:07:55;98485.19;;;-5.15;100.00
967;BME280;56108;48.730;9.304;2022-12-17T12:10:46;98488.75;;;-4.96;100.00
967;BME280;56108;48.730;9.304;2022-12-17T12:13:18;98482.53;;;-5.26;100.00
967;BME280;56108;48.730;9.304;2022-12-17T12:15:48;98479.97;;;-5.19;100.00
967;BME280;56108;48.730;9.304;2022-12-17T12:18:25;98480.97;;;-4.96;100.00
967;BME280;56108;48.730;9.304;2022-12-17T12:21:06;98482.72;;;-4.95;100.00
967;BME280;56108;48.730;9.304;2022-12-17T12:23:56;98479.47;;;-4.54;100.00
967;BME280;56108;48.730;9.304;2022-12-17T12:26:21;98482.97;;;-4.46;100.00
967;BME280;56108;48.730;9.304;2022-12-17T12:28:47;98486.47;;;-4.36;100.00
967;BME280;56108;48.730;9.304;2022-12-17T12:31:21;98483.88;;;-4.41;100.00
967;BME280;56108;48.730;9.304;2022-12-17T12:33:49;98484.66;;;-4.56;100.00
967;BME280;56108;48.730;9.304;2022-12-17T12:36:12;98479.50;;;-4.51;100.00
967;BME280;56108;48.730;9.304;2022-12-17T12:38:37;98476.13;;;-4.32;100.00
967;BME280;56108;48.730;9.304;2022-12-17T12:41:09;98475.31;;;-4.05;100.00
967;BME280;56108;48.730;9.304;2022-12-17T12:43:36;98477.88;;;-4.22;100.00
967;BME280;56108;48.730;9.304;2022-12-17T12:46:01;98477.72;;;-4.64;100.00
967;BME280;56108;48.730;9.304;2022-12-17T12:48:37;98468.38;;;-4.15;100.00
967;BME280;56108;48.730;9.304;2022-12-17T12:51:19;98471.84;;;-4.04;100.00